createdAt,value
2018-09-30T00:02:00.203Z,1.90
2018-09-30T00:04:30.561Z,2.30
2018-09-30T00:07:00.585Z,2.10
2018-09-30T00:09:31.502Z,2.00
2018-09-30T00:12:02.717Z,2.00
2018-09-30T00:14:32.755Z,2.50
2018-09-30T00:17:02.952Z,2.07
2018-09-30T00:19:33.051Z,2.40
2018-09-30T00:22:03.232Z,2.10
2018-09-30T00:24:38.890Z,1.93
2018-09-30T00:27:14.569Z,2.23
2018-09-30T00:29:44.817Z,1.80
2018-09-30T00:32:14.834Z,1.73
2018-09-30T00:34:45.331Z,1.70
2018-09-30T00:37:15.342Z,1.83
2018-09-30T00:39:45.579Z,2.10
2018-09-30T00:42:15.591Z,1.67
2018-09-30T00:44:45.818Z,2.00
2018-09-30T00:47:15.849Z,1.50
2018-09-30T00:49:45.888Z,1.83
2018-09-30T00:52:15.924Z,1.97
2018-09-30T00:54:45.952Z,1.77
2018-09-30T00:57:15.993Z,1.97
2018-09-30T00:59:46.516Z,2.00
2018-09-30T01:02:16.556Z,1.80
2018-09-30T01:04:46.551Z,1.93
2018-09-30T01:07:16.595Z,1.90
2018-09-30T01:09:46.932Z,2.23
2018-09-30T01:12:16.988Z,1.67
2018-09-30T01:14:47.011Z,2.43
2018-09-30T01:17:17.108Z,1.90
2018-09-30T01:19:47.133Z,1.50
2018-09-30T01:22:17.142Z,1.57
2018-09-30T01:24:47.467Z,2.30
2018-09-30T01:27:17.451Z,1.73
2018-09-30T01:29:47.487Z,1.70
2018-09-30T01:32:17.553Z,2.13
2018-09-30T01:34:47.923Z,2.23
2018-09-30T01:37:17.942Z,1.83
2018-09-30T01:39:47.951Z,1.80
2018-09-30T01:42:17.999Z,1.90
2018-09-30T01:44:48.018Z,1.80
2018-09-30T01:47:24.855Z,1.93
2018-09-30T01:49:55.090Z,2.00
2018-09-30T01:53:02.086Z,1.87
2018-09-30T01:55:32.150Z,2.00
2018-09-30T01:58:02.185Z,1.67
2018-09-30T02:00:32.216Z,1.40
2018-09-30T02:03:02.570Z,1.90
2018-09-30T02:05:32.587Z,1.87
2018-09-30T02:08:02.614Z,1.70
2018-09-30T02:10:32.647Z,2.00
2018-09-30T02:13:02.851Z,2.03
2018-09-30T02:15:32.884Z,2.33
2018-09-30T02:18:03.124Z,2.23
2018-09-30T02:20:33.502Z,1.90
2018-09-30T02:23:03.511Z,1.77
2018-09-30T02:25:33.543Z,2.03
2018-09-30T02:28:03.578Z,2.17
2018-09-30T02:30:33.592Z,2.20
2018-09-30T02:33:03.624Z,2.37
2018-09-30T02:35:33.655Z,2.13
2018-09-30T02:38:03.871Z,2.10
2018-09-30T02:40:33.926Z,1.83
2018-09-30T02:43:03.952Z,1.70
2018-09-30T02:45:34.355Z,1.87
2018-09-30T02:48:04.380Z,2.13
2018-09-30T02:50:34.398Z,1.80
2018-09-30T02:53:07.502Z,2.70
2018-09-30T02:55:39.025Z,2.07
2018-09-30T02:58:09.172Z,2.07
2018-09-30T03:00:39.524Z,2.43
2018-09-30T03:03:09.563Z,2.13
2018-09-30T03:05:39.790Z,2.27
2018-09-30T03:09:18.850Z,2.17
2018-09-30T03:11:49.197Z,2.00
2018-09-30T03:14:19.434Z,2.17
2018-09-30T03:16:49.444Z,1.90
2018-09-30T03:19:19.679Z,2.60
2018-09-30T03:21:49.684Z,2.03
2018-09-30T03:24:19.719Z,2.20
2018-09-30T03:26:49.743Z,2.30
2018-09-30T03:29:20.823Z,2.03
2018-09-30T03:31:51.035Z,2.17
2018-09-30T03:34:21.582Z,1.90
2018-09-30T03:36:51.595Z,1.93
2018-09-30T03:39:21.659Z,2.20
2018-09-30T03:41:51.895Z,2.33
2018-09-30T03:44:21.936Z,2.30
2018-09-30T03:46:51.975Z,2.10
2018-09-30T03:49:22.006Z,1.73
2018-09-30T03:51:52.044Z,1.90
2018-09-30T03:54:22.056Z,2.07
2018-09-30T03:56:52.094Z,2.47
2018-09-30T03:59:22.132Z,2.13
2018-09-30T04:01:52.168Z,1.93
2018-09-30T04:04:22.169Z,1.90
2018-09-30T04:06:52.215Z,2.10
2018-09-30T04:09:22.238Z,2.00
2018-09-30T04:11:52.486Z,1.83
2018-09-30T04:14:22.741Z,2.10
2018-09-30T04:16:52.843Z,2.10
2018-09-30T04:19:23.041Z,2.50
2018-09-30T04:21:53.271Z,2.47
2018-09-30T04:24:23.311Z,2.30
2018-09-30T04:26:53.548Z,2.13
2018-09-30T04:29:23.594Z,2.63
2018-09-30T04:31:53.795Z,2.20
2018-09-30T04:34:23.840Z,2.10
2018-09-30T04:36:53.855Z,2.43
2018-09-30T04:39:23.907Z,2.70
2018-09-30T04:41:53.939Z,2.50
2018-09-30T04:44:23.951Z,2.07
2018-09-30T04:46:53.986Z,1.93
2018-09-30T04:49:30.641Z,1.90
2018-09-30T04:52:00.686Z,2.10
2018-09-30T04:54:30.699Z,1.87
2018-09-30T04:57:00.753Z,1.93
2018-09-30T04:59:31.306Z,2.20
2018-09-30T05:02:01.351Z,1.90
2018-09-30T05:04:31.360Z,2.50
2018-09-30T05:07:01.412Z,1.90
2018-09-30T05:09:31.435Z,2.00
2018-09-30T05:12:01.468Z,2.07
2018-09-30T05:14:31.494Z,1.90
2018-09-30T05:17:01.504Z,1.93
2018-09-30T05:19:31.552Z,2.27
2018-09-30T05:22:01.560Z,2.90
2018-09-30T05:24:31.626Z,2.30
2018-09-30T05:27:02.242Z,2.33
2018-09-30T05:29:32.467Z,2.17
2018-09-30T05:32:02.492Z,2.20
2018-09-30T05:37:08.927Z,2.33
2018-09-30T05:39:39.144Z,2.10
2018-09-30T05:42:09.154Z,2.57
2018-09-30T05:44:39.209Z,2.17
2018-09-30T05:47:09.500Z,2.43
2018-09-30T05:49:39.544Z,2.33
2018-09-30T05:52:09.588Z,2.33
2018-09-30T05:54:39.825Z,2.60
2018-09-30T05:57:09.843Z,2.77
2018-09-30T05:59:39.844Z,2.40
2018-09-30T06:02:10.060Z,2.70
2018-09-30T06:04:40.068Z,3.90
2018-09-30T06:07:10.112Z,3.70
2018-09-30T06:09:41.831Z,4.60
2018-09-30T06:12:11.871Z,3.20
2018-09-30T06:14:41.895Z,3.00
2018-09-30T06:17:11.957Z,2.50
2018-09-30T06:19:42.183Z,2.40
2018-09-30T06:22:12.220Z,2.90
2018-09-30T06:24:42.249Z,2.90
2018-09-30T06:27:12.284Z,2.50
2018-09-30T06:29:42.300Z,2.73
2018-09-30T06:32:12.604Z,2.80
2018-09-30T06:34:42.768Z,2.73
2018-09-30T06:37:12.838Z,2.70
2018-09-30T06:39:43.028Z,4.10
2018-09-30T06:42:13.071Z,3.23
2018-09-30T06:44:43.077Z,2.70
2018-09-30T06:47:13.159Z,3.10
2018-09-30T06:49:43.213Z,3.30
2018-09-30T06:52:13.232Z,3.00
2018-09-30T06:54:43.287Z,3.40
2018-09-30T06:57:13.627Z,2.67
2018-09-30T06:59:43.667Z,2.40
2018-09-30T07:02:13.700Z,3.60
2018-09-30T07:04:42.608Z,3.00
2018-09-30T07:07:12.828Z,3.10
2018-09-30T07:09:49.412Z,2.60
2018-09-30T07:12:19.494Z,2.27
2018-09-30T07:14:49.564Z,3.20
2018-09-30T07:17:20.033Z,3.87
2018-09-30T07:19:50.049Z,2.73
2018-09-30T07:22:20.138Z,3.70
2018-09-30T07:24:50.343Z,3.80
2018-09-30T07:27:20.563Z,3.47
2018-09-30T07:29:50.606Z,3.63
2018-09-30T07:32:20.615Z,3.30
2018-09-30T07:34:50.692Z,3.50
2018-09-30T07:37:23.293Z,3.63
2018-09-30T07:39:55.812Z,3.70
2018-09-30T07:42:28.349Z,3.53
2018-09-30T07:45:01.210Z,4.20
2018-09-30T07:47:31.206Z,4.10
2018-09-30T07:50:01.252Z,4.37
2018-09-30T07:52:31.304Z,4.30
2018-09-30T07:55:01.495Z,3.57
2018-09-30T07:57:31.505Z,4.43
2018-09-30T08:00:01.536Z,4.13
2018-09-30T08:02:31.758Z,4.63
2018-09-30T08:05:01.799Z,3.73
2018-09-30T08:07:31.875Z,4.03
2018-09-30T08:10:02.233Z,3.67
2018-09-30T08:12:32.468Z,4.47
2018-09-30T08:15:02.519Z,4.07
2018-09-30T08:17:32.528Z,2.87
2018-09-30T08:20:02.600Z,3.10
2018-09-30T08:22:32.603Z,2.90
2018-09-30T08:25:03.005Z,2.70
2018-09-30T08:27:33.027Z,2.30
2018-09-30T08:30:03.259Z,2.70
2018-09-30T08:32:33.483Z,1.80
2018-09-30T08:35:03.511Z,2.67
2018-09-30T08:37:38.936Z,1.80
2018-09-30T08:40:09.308Z,2.27
2018-09-30T08:42:39.507Z,1.70
2018-09-30T08:45:10.060Z,1.70
2018-09-30T08:47:40.911Z,1.70
2018-09-30T08:50:11.734Z,1.80
2018-09-30T08:52:42.331Z,2.25
2018-09-30T08:55:12.879Z,1.90
2018-09-30T08:57:43.519Z,1.72
2018-09-30T09:00:14.079Z,2.00
2018-09-30T09:02:45.033Z,2.05
2018-09-30T09:05:15.823Z,1.92
2018-09-30T09:07:46.412Z,1.70
2018-09-30T09:10:16.998Z,1.70
2018-09-30T09:12:47.790Z,1.67
2018-09-30T09:15:18.411Z,1.70
2018-09-30T09:17:49.173Z,1.35
2018-09-30T09:20:19.899Z,1.75
2018-09-30T09:22:50.573Z,1.92
2018-09-30T09:25:21.384Z,1.67
2018-09-30T09:27:51.968Z,1.65
2018-09-30T09:30:22.542Z,1.98
2018-09-30T09:32:53.117Z,1.77
2018-09-30T09:35:23.871Z,2.12
2018-09-30T09:37:54.699Z,1.85
2018-09-30T09:40:25.628Z,1.52
2018-09-30T09:42:56.412Z,1.80
2018-09-30T09:45:26.967Z,1.80
2018-09-30T09:47:57.743Z,1.60
2018-09-30T09:50:28.343Z,1.57
2018-09-30T09:52:58.951Z,2.00
2018-09-30T09:55:29.534Z,1.50
2018-09-30T09:58:00.359Z,2.15
2018-09-30T10:00:31.590Z,2.27
2018-09-30T10:03:02.438Z,2.20
2018-09-30T10:05:32.978Z,2.22
2018-09-30T10:08:02.432Z,2.30
2018-09-30T10:10:33.187Z,2.02
2018-09-30T10:13:03.989Z,1.90
2018-09-30T10:15:34.750Z,2.52
2018-09-30T10:18:05.331Z,2.37
2018-09-30T10:20:35.920Z,2.58
2018-09-30T10:23:06.571Z,2.70
2018-09-30T10:25:37.917Z,2.58
2018-09-30T10:28:08.527Z,2.98
2018-09-30T10:30:39.193Z,2.10
2018-09-30T10:33:09.796Z,2.05
2018-09-30T10:35:40.391Z,2.12
2018-09-30T10:38:10.968Z,2.02
2018-09-30T10:40:41.570Z,1.95
2018-09-30T10:43:12.127Z,1.85
2018-09-30T10:45:42.735Z,1.92
2018-09-30T10:48:13.362Z,1.90
2018-09-30T10:50:44.132Z,1.62
2018-09-30T10:53:14.715Z,2.02
2018-09-30T10:55:45.306Z,1.77
2018-09-30T10:58:16.075Z,2.15
2018-09-30T11:00:46.685Z,2.00
2018-09-30T11:03:17.876Z,1.80
2018-09-30T11:05:48.612Z,1.37
2018-09-30T11:08:19.168Z,1.72
2018-09-30T11:10:49.801Z,2.15
2018-09-30T11:13:20.377Z,1.92
2018-09-30T11:15:50.971Z,2.67
2018-09-30T11:18:21.545Z,1.98
2018-09-30T11:20:52.333Z,2.00
2018-09-30T11:23:27.791Z,1.80
2018-09-30T11:26:02.900Z,1.80
2018-09-30T11:28:38.323Z,1.70
2018-09-30T11:31:08.991Z,1.90
2018-09-30T11:33:39.764Z,1.60
2018-09-30T11:36:10.370Z,1.70
2018-09-30T11:38:41.031Z,2.05
2018-09-30T11:41:11.990Z,2.15
2018-09-30T11:43:42.551Z,1.40
2018-09-30T11:46:13.174Z,1.87
2018-09-30T11:48:43.772Z,1.70
2018-09-30T11:51:14.358Z,1.50
2018-09-30T11:53:44.947Z,2.02
2018-09-30T11:56:15.556Z,1.80
2018-09-30T11:58:46.123Z,1.65
2018-09-30T12:01:16.777Z,2.40
2018-09-30T12:03:47.527Z,2.35
2018-09-30T12:06:18.783Z,2.42
2018-09-30T12:08:49.411Z,1.70
2018-09-30T12:11:19.972Z,2.15
2018-09-30T12:13:50.563Z,2.30
2018-09-30T12:16:21.123Z,2.00
2018-09-30T12:18:51.894Z,1.80
2018-09-30T12:21:22.607Z,2.37
2018-09-30T12:23:53.162Z,2.00
2018-09-30T12:26:23.768Z,2.17
2018-09-30T12:28:54.336Z,1.72
2018-09-30T12:31:24.937Z,1.85
2018-09-30T12:33:55.495Z,2.20
2018-09-30T12:36:26.091Z,2.10
2018-09-30T12:38:56.907Z,2.85
2018-09-30T12:41:27.838Z,2.00
2018-09-30T12:43:58.417Z,2.12
2018-09-30T12:46:29.024Z,2.47
2018-09-30T12:48:59.814Z,2.27
2018-09-30T12:51:30.411Z,2.35
2018-09-30T12:54:00.998Z,1.90
2018-09-30T12:56:31.590Z,2.10
2018-09-30T12:59:02.173Z,2.25
2018-09-30T13:01:32.747Z,2.40
2018-09-30T13:04:03.347Z,2.22
2018-09-30T13:06:34.128Z,2.45
2018-09-30T13:09:06.679Z,2.27
2018-09-30T13:11:37.255Z,2.47
2018-09-30T13:14:08.130Z,2.50
2018-09-30T13:16:38.687Z,2.30
2018-09-30T13:19:09.311Z,2.50
2018-09-30T13:21:39.936Z,2.30
2018-09-30T13:24:10.542Z,2.33
2018-09-30T13:26:41.327Z,2.62
2018-09-30T13:29:11.939Z,2.70
2018-09-30T13:31:42.494Z,2.60
2018-09-30T13:34:13.222Z,2.33
2018-09-30T13:36:43.985Z,2.70
2018-09-30T13:39:15.587Z,2.50
2018-09-30T13:41:46.187Z,2.30
2018-09-30T13:44:16.748Z,2.33
2018-09-30T13:46:47.348Z,2.22
2018-09-30T13:49:18.416Z,1.98
2018-09-30T13:51:49.001Z,2.22
2018-09-30T13:54:19.646Z,2.30
2018-09-30T13:56:50.592Z,2.33
2018-09-30T13:59:21.171Z,2.90
2018-09-30T14:01:58.319Z,2.45
2018-09-30T14:04:28.927Z,2.50
2018-09-30T14:06:59.710Z,2.83
2018-09-30T14:09:30.507Z,2.90
2018-09-30T14:12:01.098Z,2.25
2018-09-30T14:14:32.043Z,2.55
2018-09-30T14:17:02.634Z,3.10
2018-09-30T14:19:33.200Z,2.72
2018-09-30T14:22:03.815Z,2.50
2018-09-30T14:24:34.370Z,2.50
2018-09-30T14:27:05.405Z,2.58
2018-09-30T14:29:36.075Z,2.58
2018-09-30T14:32:06.889Z,2.25
2018-09-30T14:34:37.665Z,2.37
2018-09-30T14:37:08.267Z,2.40
2018-09-30T14:39:38.866Z,2.10
2018-09-30T14:42:09.455Z,2.70
2018-09-30T14:44:40.383Z,1.87
2018-09-30T14:47:10.975Z,2.35
2018-09-30T14:49:41.536Z,1.90
2018-09-30T14:52:12.471Z,1.80
2018-09-30T14:54:43.050Z,2.00
2018-09-30T14:57:13.688Z,1.80
2018-09-30T14:59:44.350Z,2.12
2018-09-30T15:02:15.087Z,2.25
2018-09-30T15:04:45.677Z,2.00
2018-09-30T15:07:16.289Z,1.65
2018-09-30T15:09:47.014Z,2.25
2018-09-30T15:12:17.616Z,1.95
2018-09-30T15:14:48.204Z,1.92
2018-09-30T15:17:18.848Z,2.08
2018-09-30T15:19:49.624Z,1.92
2018-09-30T15:22:20.503Z,2.52
2018-09-30T15:24:51.091Z,2.37
2018-09-30T15:27:21.864Z,2.08
2018-09-30T15:29:52.639Z,2.02
2018-09-30T15:32:23.231Z,1.92
2018-09-30T15:34:53.823Z,2.17
2018-09-30T15:37:25.384Z,1.82
2018-09-30T15:39:56.305Z,2.27
2018-09-30T15:42:26.903Z,1.70
2018-09-30T15:44:57.473Z,1.92
2018-09-30T15:47:28.063Z,1.52
2018-09-30T15:49:58.811Z,1.90
2018-09-30T15:52:29.411Z,2.37
2018-09-30T15:54:59.971Z,1.60
2018-09-30T15:57:30.763Z,2.10
2018-09-30T16:00:01.368Z,2.87
2018-09-30T16:02:32.160Z,2.30
2018-09-30T16:05:02.761Z,1.80
2018-09-30T16:07:33.584Z,2.12
2018-09-30T16:10:04.679Z,2.00
2018-09-30T16:12:35.268Z,2.42
2018-09-30T16:15:06.032Z,1.98
2018-09-30T16:17:36.623Z,2.25
2018-09-30T16:20:07.568Z,2.17
2018-09-30T16:22:38.131Z,2.02
2018-09-30T16:25:08.740Z,2.27
2018-09-30T16:27:39.310Z,2.10
2018-09-30T16:30:09.910Z,2.22
2018-09-30T16:32:40.696Z,2.10
2018-09-30T16:35:11.377Z,2.37
2018-09-30T16:37:42.079Z,1.80
2018-09-30T16:40:12.700Z,2.00
2018-09-30T16:42:43.264Z,2.20
2018-09-30T16:45:13.863Z,1.87
2018-09-30T16:47:44.424Z,2.35
2018-09-30T16:50:15.032Z,2.65
2018-09-30T16:52:45.599Z,1.77
2018-09-30T16:55:16.189Z,1.77
2018-09-30T16:57:46.935Z,2.00
2018-09-30T17:00:17.540Z,2.15
2018-09-30T17:02:48.117Z,1.75
2018-09-30T17:05:18.744Z,1.60
2018-09-30T17:07:49.520Z,1.60
2018-09-30T17:10:20.128Z,2.42
2018-09-30T17:12:50.704Z,1.60
2018-09-30T17:15:21.267Z,1.82
2018-09-30T17:17:52.058Z,2.10
2018-09-30T17:22:59.510Z,1.90
2018-09-30T17:25:30.104Z,1.80
2018-09-30T17:28:00.950Z,2.15
2018-09-30T17:30:31.604Z,1.85
2018-09-30T17:33:02.859Z,1.90
2018-09-30T17:35:33.398Z,2.27
2018-09-30T17:38:03.988Z,2.02
2018-09-30T17:40:34.603Z,2.05
2018-09-30T17:43:05.175Z,1.90
2018-09-30T17:45:35.771Z,2.55
2018-09-30T17:48:06.675Z,1.98
2018-09-30T17:50:38.249Z,2.25
2018-09-30T17:53:08.837Z,2.65
2018-09-30T17:55:39.420Z,1.70
2018-09-30T17:58:10.129Z,2.52
2018-09-30T18:00:40.795Z,2.45
2018-09-30T18:03:11.375Z,2.17
2018-09-30T18:05:41.959Z,2.10
2018-09-30T18:08:12.519Z,2.65
2018-09-30T18:10:43.112Z,3.00
2018-09-30T18:13:13.712Z,2.80
2018-09-30T18:15:44.291Z,3.05
2018-09-30T18:18:14.926Z,3.30
2018-09-30T18:20:45.493Z,2.90
2018-09-30T18:23:16.097Z,3.22
2018-09-30T18:25:46.663Z,3.47
2018-09-30T18:28:17.251Z,3.77
2018-09-30T18:30:47.811Z,3.60
2018-09-30T18:33:18.547Z,3.77
2018-09-30T18:35:49.325Z,4.28
2018-09-30T18:38:20.250Z,4.47
2018-09-30T18:40:51.012Z,4.53
2018-09-30T18:43:21.599Z,4.00
2018-09-30T18:45:52.167Z,4.33
2018-09-30T18:48:22.751Z,4.83
2018-09-30T18:50:53.323Z,5.15
2018-09-30T18:53:23.977Z,5.87
2018-09-30T18:55:54.795Z,5.95
2018-09-30T18:58:25.564Z,5.83
2018-09-30T19:00:56.508Z,5.58
2018-09-30T19:03:27.089Z,6.97
2018-09-30T19:05:58.187Z,6.58
2018-09-30T19:08:28.764Z,6.83
2018-09-30T19:10:59.376Z,6.28
2018-09-30T19:13:29.998Z,5.70
2018-09-30T19:16:00.679Z,5.70
2018-09-30T19:18:31.383Z,4.37
2018-09-30T19:21:01.975Z,4.42
2018-09-30T19:23:32.588Z,4.62
2018-09-30T19:26:03.183Z,4.25
2018-09-30T19:28:33.950Z,4.83
2018-09-30T19:31:04.559Z,3.90
2018-09-30T19:33:35.468Z,3.80
2018-09-30T19:36:09.357Z,4.60
2018-09-30T19:38:40.280Z,4.03
2018-09-30T19:41:10.881Z,4.42
2018-09-30T19:43:41.480Z,5.05
2018-09-30T19:46:12.239Z,4.75
2018-09-30T19:48:42.893Z,4.08
2018-09-30T19:51:13.614Z,3.87
2018-09-30T19:53:44.199Z,4.40
2018-09-30T19:56:14.764Z,4.50
2018-09-30T19:58:45.642Z,4.12
2018-09-30T20:01:16.208Z,3.52
2018-09-30T20:03:46.798Z,3.98
2018-09-30T20:06:17.391Z,3.90
2018-09-30T20:08:47.988Z,3.92
2018-09-30T20:11:18.540Z,3.52
2018-09-30T20:13:49.131Z,3.95
2018-09-30T20:16:19.692Z,3.50
2018-09-30T20:18:50.276Z,3.87
2018-09-30T20:21:20.839Z,4.37
2018-09-30T20:23:51.459Z,3.95
2018-09-30T20:26:22.128Z,4.03
2018-09-30T20:28:53.687Z,3.98
2018-09-30T20:31:24.250Z,3.60
2018-09-30T20:33:55.021Z,3.45
2018-09-30T20:36:25.767Z,3.67
2018-09-30T20:38:56.367Z,3.62
2018-09-30T20:41:26.927Z,3.55
2018-09-30T20:43:57.519Z,4.08
2018-09-30T20:46:28.100Z,4.10
2018-09-30T20:48:58.813Z,4.50
2018-09-30T20:51:29.488Z,4.28
2018-09-30T20:54:00.060Z,4.12
2018-09-30T20:56:30.645Z,4.65
2018-09-30T20:59:01.212Z,3.90
2018-09-30T21:01:31.807Z,4.05
2018-09-30T21:04:02.382Z,4.22
2018-09-30T21:06:37.201Z,4.05
2018-09-30T21:09:09.031Z,4.20
2018-09-30T21:11:40.095Z,3.70
2018-09-30T21:14:10.658Z,4.30
2018-09-30T21:16:41.255Z,4.28
2018-09-30T21:19:12.020Z,4.72
2018-09-30T21:21:42.642Z,4.10
2018-09-30T21:24:13.408Z,4.47
2018-09-30T21:26:44.008Z,3.70
2018-09-30T21:29:14.572Z,3.90
2018-09-30T21:31:45.167Z,4.17
2018-09-30T21:34:15.795Z,4.10
2018-09-30T21:36:46.514Z,4.47
2018-09-30T21:39:17.128Z,4.03
2018-09-30T21:41:47.683Z,4.60
2018-09-30T21:44:18.268Z,4.08
2018-09-30T21:46:49.006Z,3.87
2018-09-30T21:49:19.596Z,4.60
2018-09-30T21:51:50.151Z,5.08
2018-09-30T21:54:20.731Z,5.17
2018-09-30T21:56:51.323Z,5.33
2018-09-30T21:59:21.056Z,4.05
2018-09-30T22:01:51.649Z,5.20
2018-09-30T22:04:22.440Z,5.37
2018-09-30T22:06:53.051Z,5.72
2018-09-30T22:09:23.630Z,6.20
2018-09-30T22:11:54.235Z,5.05
2018-09-30T22:14:24.843Z,5.72
2018-09-30T22:16:55.456Z,5.35
2018-09-30T22:19:26.146Z,5.75
2018-09-30T22:21:56.845Z,5.42
2018-09-30T22:24:27.621Z,5.08
2018-09-30T22:26:58.272Z,5.10
2018-09-30T22:29:28.978Z,5.17
2018-09-30T22:31:59.583Z,5.45
2018-09-30T22:34:30.163Z,5.03
2018-09-30T22:37:00.755Z,5.40
2018-09-30T22:39:31.363Z,5.97
2018-09-30T22:42:01.991Z,5.35
2018-09-30T22:44:32.595Z,5.83
2018-09-30T22:47:03.356Z,5.22
2018-09-30T22:52:38.562Z,6.10
2018-09-30T22:55:09.171Z,5.60
2018-09-30T22:57:38.815Z,5.62
2018-09-30T23:00:09.487Z,5.97
2018-09-30T23:02:40.086Z,6.42
2018-09-30T23:05:11.030Z,6.37
2018-09-30T23:07:41.828Z,5.90
2018-09-30T23:10:13.155Z,6.20
2018-09-30T23:12:43.869Z,6.10
2018-09-30T23:15:14.419Z,5.15
2018-09-30T23:17:45.344Z,6.08
2018-09-30T23:20:16.916Z,6.95
2018-09-30T23:22:47.777Z,5.97
2018-09-30T23:25:18.359Z,6.90
2018-09-30T23:27:48.963Z,6.67
2018-09-30T23:30:19.545Z,6.60
2018-09-30T23:32:50.142Z,6.72
2018-09-30T23:35:20.923Z,7.20
2018-09-30T23:37:51.517Z,8.60
2018-09-30T23:40:22.133Z,8.10
2018-09-30T23:42:52.759Z,8.25
2018-09-30T23:45:23.498Z,6.60
2018-09-30T23:47:54.278Z,7.70
2018-09-30T23:50:24.852Z,7.20
2018-09-30T23:52:55.464Z,8.48
2018-09-30T23:55:26.063Z,7.92
2018-09-30T23:58:09.538Z,9.20
